U-Tapao International Airport
VTBU : now visible

Airfield :











YOU CAN JOIN US ON...

 
LOGIN :

Register | Disclaimer

   EN    FR    IT 

 









Legend :    VFR   Marginal VFR   IFR   Intensive IFR   Very Intensive IFR
Visi :
Ceiling :
>= 8 km
>= 3000ft
5 to 8 km
1000 to 3000 ft
1500m to 5 km
500 to 1000 ft
800 to 1500m
200 to 500 ft
< 800m
< 200 ft
Symbols :   Thunderstorms  Fog  Heavy snow  Heavy precipitations  Wind > 20 kt






- Airport Elevation : 42 ft
- IATA code : UTP


VTBU - U-Tapao International

CURRENT METAR :
  • 020300Z 02008KT 9999 FEW020 29/23 Q1011 NOSIG

EXPIRED METARs :
  • 020230Z 02007KT 9999 FEW020 29/23 Q1010 NOSIG
  • 020200Z 02009KT 9000 FEW020 29/23 Q1010 NOSIG
  • 020130Z 02008KT 9000 FEW020 28/23 Q1010 NOSIG
  • 020100Z 01008KT 9000 FEW020 27/23 Q1009 NOSIG
  • 020030Z 01008KT 9000 FEW020 26/22 Q1009 NOSIG
  • 020000Z 01006KT 9999 FEW020 25/22 Q1009 NOSIG

TAF TAF VTBU
Valid from the 02 at 00:00 until the 03 at 00:00 UTC


012300Z 0200/0224 36004KT 9999 FEW020
BECMG 0206/0207 18005KT
BECMG 0209/0210 26004KT
BECMG 0212/0213 35004KT
VTBB FIR / Asia



MET'MAP, your aeronautical weather chart ! - Copyright ORBIFLY December 2007 - Disclaimer

ORBIFLY MET'MAP TEAM :

Programming & Development : Alexandra Zaïnal
Original concept : Baudouin d'Aumeries
Technical & hardware support : Manuel Goepfert
Assistance : Marc-Olivier Méhu




SOURCES & CREDITS :

   NOAA       Earth
Advisory